sensor_id;sensor_type;location;lat;lon;timestamp;P1;durP1;ratioP1;P2;durP2;ratioP2
58091;SDS011;43896;48.178;11.578;2022-09-27T00:00:33;2.78;;;1.10;;
58091;SDS011;43896;48.178;11.578;2022-09-27T00:02:58;2.78;;;1.40;;
58091;SDS011;43896;48.178;11.578;2022-09-27T00:05:24;2.80;;;1.27;;
58091;SDS011;43896;48.178;11.578;2022-09-27T00:07:49;4.07;;;1.70;;
58091;SDS011;43896;48.178;11.578;2022-09-27T00:10:15;3.67;;;1.42;;
58091;SDS011;43896;48.178;11.578;2022-09-27T00:12:40;2.85;;;1.20;;
58091;SDS011;43896;48.178;11.578;2022-09-27T00:15:06;4.38;;;1.15;;
58091;SDS011;43896;48.178;11.578;2022-09-27T00:17:34;2.92;;;1.30;;
58091;SDS011;43896;48.178;11.578;2022-09-27T00:20:00;3.25;;;1.30;;
58091;SDS011;43896;48.178;11.578;2022-09-27T00:22:27;2.55;;;1.20;;
58091;SDS011;43896;48.178;11.578;2022-09-27T00:24:54;3.15;;;1.27;;
58091;SDS011;43896;48.178;11.578;2022-09-27T00:27:19;2.63;;;1.20;;
58091;SDS011;43896;48.178;11.578;2022-09-27T00:29:45;3.70;;;1.30;;
58091;SDS011;43896;48.178;11.578;2022-09-27T00:32:12;3.00;;;1.10;;
58091;SDS011;43896;48.178;11.578;2022-09-27T00:34:38;2.53;;;1.10;;
58091;SDS011;43896;48.178;11.578;2022-09-27T00:37:05;2.55;;;1.20;;
58091;SDS011;43896;48.178;11.578;2022-09-27T00:39:30;3.03;;;1.30;;
58091;SDS011;43896;48.178;11.578;2022-09-27T00:41:56;3.58;;;1.30;;
58091;SDS011;43896;48.178;11.578;2022-09-27T00:46:52;3.65;;;1.80;;
58091;SDS011;43896;48.178;11.578;2022-09-27T00:49:29;4.13;;;1.80;;
58091;SDS011;43896;48.178;11.578;2022-09-27T00:52:04;3.25;;;1.40;;
58091;SDS011;43896;48.178;11.578;2022-09-27T00:54:38;2.55;;;1.30;;
58091;SDS011;43896;48.178;11.578;2022-09-27T00:59:33;3.25;;;1.48;;
58091;SDS011;43896;48.178;11.578;2022-09-27T01:01:59;3.17;;;1.40;;
58091;SDS011;43896;48.178;11.578;2022-09-27T01:04:26;2.90;;;1.60;;
58091;SDS011;43896;48.178;11.578;2022-09-27T01:06:53;3.33;;;1.30;;
58091;SDS011;43896;48.178;11.578;2022-09-27T01:09:19;3.00;;;1.30;;
58091;SDS011;43896;48.178;11.578;2022-09-27T01:14:45;3.00;;;1.38;;
58091;SDS011;43896;48.178;11.578;2022-09-27T01:20:12;3.83;;;1.90;;
58091;SDS011;43896;48.178;11.578;2022-09-27T01:48:13;3.30;;;1.38;;
58091;SDS011;43896;48.178;11.578;2022-09-27T01:50:26;3.53;;;1.52;;
58091;SDS011;43896;48.178;11.578;2022-09-27T01:55:55;3.83;;;1.60;;
58091;SDS011;43896;48.178;11.578;2022-09-27T02:01:16;4.10;;;1.60;;
58091;SDS011;43896;48.178;11.578;2022-09-27T02:03:46;3.60;;;1.63;;
58091;SDS011;43896;48.178;11.578;2022-09-27T02:08:51;3.00;;;1.40;;
58091;SDS011;43896;48.178;11.578;2022-09-27T02:11:21;3.75;;;1.75;;
58091;SDS011;43896;48.178;11.578;2022-09-27T02:13:52;4.43;;;1.52;;
58091;SDS011;43896;48.178;11.578;2022-09-27T02:22:18;4.43;;;1.70;;
58091;SDS011;43896;48.178;11.578;2022-09-27T02:27:45;4.80;;;1.70;;
58091;SDS011;43896;48.178;11.578;2022-09-27T02:30:22;4.07;;;2.00;;
58091;SDS011;43896;48.178;11.578;2022-09-27T02:32:47;3.90;;;1.60;;
58091;SDS011;43896;48.178;11.578;2022-09-27T02:35:21;3.60;;;1.63;;
58091;SDS011;43896;48.178;11.578;2022-09-27T02:37:50;3.55;;;1.67;;
58091;SDS011;43896;48.178;11.578;2022-09-27T02:40:16;3.42;;;1.50;;
58091;SDS011;43896;48.178;11.578;2022-09-27T02:42:42;4.07;;;1.60;;
58091;SDS011;43896;48.178;11.578;2022-09-27T02:45:08;6.53;;;3.38;;
58091;SDS011;43896;48.178;11.578;2022-09-27T02:53:27;4.85;;;1.80;;
58091;SDS011;43896;48.178;11.578;2022-09-27T02:56:04;3.85;;;1.90;;
58091;SDS011;43896;48.178;11.578;2022-09-27T03:01:26;3.38;;;1.50;;
58091;SDS011;43896;48.178;11.578;2022-09-27T03:04:17;4.30;;;1.80;;
58091;SDS011;43896;48.178;11.578;2022-09-27T03:06:47;4.07;;;1.80;;
58091;SDS011;43896;48.178;11.578;2022-09-27T03:09:18;5.15;;;1.83;;
58091;SDS011;43896;48.178;11.578;2022-09-27T03:11:45;5.03;;;1.80;;
58091;SDS011;43896;48.178;11.578;2022-09-27T03:14:11;3.78;;;1.65;;
58091;SDS011;43896;48.178;11.578;2022-09-27T03:16:37;3.17;;;1.60;;
58091;SDS011;43896;48.178;11.578;2022-09-27T03:19:03;3.95;;;1.75;;
58091;SDS011;43896;48.178;11.578;2022-09-27T03:21:28;3.42;;;1.50;;
58091;SDS011;43896;48.178;11.578;2022-09-27T03:23:53;3.92;;;1.80;;
58091;SDS011;43896;48.178;11.578;2022-09-27T03:26:19;3.45;;;1.70;;
58091;SDS011;43896;48.178;11.578;2022-09-27T03:28:45;3.65;;;1.80;;
58091;SDS011;43896;48.178;11.578;2022-09-27T03:31:10;4.63;;;1.83;;
58091;SDS011;43896;48.178;11.578;2022-09-27T03:33:35;3.78;;;1.60;;
58091;SDS011;43896;48.178;11.578;2022-09-27T03:36:01;3.70;;;1.85;;
58091;SDS011;43896;48.178;11.578;2022-09-27T03:38:27;3.72;;;1.67;;
58091;SDS011;43896;48.178;11.578;2022-09-27T03:40:52;3.45;;;1.70;;
58091;SDS011;43896;48.178;11.578;2022-09-27T03:43:18;3.67;;;1.85;;
58091;SDS011;43896;48.178;11.578;2022-09-27T03:45:43;3.63;;;1.73;;
58091;SDS011;43896;48.178;11.578;2022-09-27T03:48:09;4.07;;;1.67;;
58091;SDS011;43896;48.178;11.578;2022-09-27T03:50:35;4.78;;;1.98;;
58091;SDS011;43896;48.178;11.578;2022-09-27T03:53:00;5.47;;;1.80;;
58091;SDS011;43896;48.178;11.578;2022-09-27T03:55:26;3.40;;;1.80;;
58091;SDS011;43896;48.178;11.578;2022-09-27T03:57:51;3.70;;;1.90;;
58091;SDS011;43896;48.178;11.578;2022-09-27T04:00:17;3.72;;;1.65;;
58091;SDS011;43896;48.178;11.578;2022-09-27T04:02:43;4.88;;;1.83;;
58091;SDS011;43896;48.178;11.578;2022-09-27T04:05:09;4.10;;;1.92;;
58091;SDS011;43896;48.178;11.578;2022-09-27T04:07:34;3.88;;;1.80;;
58091;SDS011;43896;48.178;11.578;2022-09-27T04:10:00;4.43;;;1.90;;
58091;SDS011;43896;48.178;11.578;2022-09-27T04:12:26;3.97;;;1.90;;
58091;SDS011;43896;48.178;11.578;2022-09-27T04:14:51;3.50;;;1.70;;
58091;SDS011;43896;48.178;11.578;2022-09-27T04:17:18;3.53;;;1.75;;
58091;SDS011;43896;48.178;11.578;2022-09-27T04:19:44;4.53;;;2.00;;
58091;SDS011;43896;48.178;11.578;2022-09-27T04:22:09;3.45;;;1.60;;
58091;SDS011;43896;48.178;11.578;2022-09-27T04:24:34;5.78;;;1.90;;
58091;SDS011;43896;48.178;11.578;2022-09-27T04:27:00;5.93;;;1.75;;
58091;SDS011;43896;48.178;11.578;2022-09-27T04:29:25;3.70;;;1.90;;
58091;SDS011;43896;48.178;11.578;2022-09-27T04:31:52;4.13;;;2.03;;
58091;SDS011;43896;48.178;11.578;2022-09-27T04:34:17;3.92;;;1.80;;
58091;SDS011;43896;48.178;11.578;2022-09-27T04:37:02;5.13;;;1.60;;
58091;SDS011;43896;48.178;11.578;2022-09-27T04:39:28;3.40;;;1.70;;
58091;SDS011;43896;48.178;11.578;2022-09-27T04:41:53;4.40;;;1.77;;
58091;SDS011;43896;48.178;11.578;2022-09-27T04:44:19;3.78;;;1.60;;
58091;SDS011;43896;48.178;11.578;2022-09-27T04:46:47;3.50;;;1.70;;
58091;SDS011;43896;48.178;11.578;2022-09-27T04:49:35;4.13;;;1.70;;
58091;SDS011;43896;48.178;11.578;2022-09-27T04:52:01;3.03;;;1.50;;
58091;SDS011;43896;48.178;11.578;2022-09-27T04:54:26;3.08;;;1.30;;
58091;SDS011;43896;48.178;11.578;2022-09-27T04:56:53;3.10;;;1.30;;
58091;SDS011;43896;48.178;11.578;2022-09-27T04:59:18;3.28;;;1.38;;
58091;SDS011;43896;48.178;11.578;2022-09-27T05:01:44;3.47;;;1.30;;
58091;SDS011;43896;48.178;11.578;2022-09-27T05:04:10;3.00;;;1.33;;
58091;SDS011;43896;48.178;11.578;2022-09-27T05:06:35;2.45;;;1.13;;
58091;SDS011;43896;48.178;11.578;2022-09-27T05:09:03;4.25;;;1.30;;
58091;SDS011;43896;48.178;11.578;2022-09-27T05:11:29;2.95;;;1.20;;
58091;SDS011;43896;48.178;11.578;2022-09-27T05:13:54;2.53;;;1.10;;
58091;SDS011;43896;48.178;11.578;2022-09-27T05:16:19;3.15;;;1.40;;
58091;SDS011;43896;48.178;11.578;2022-09-27T05:18:45;3.25;;;1.35;;
58091;SDS011;43896;48.178;11.578;2022-09-27T05:21:10;3.00;;;1.23;;
58091;SDS011;43896;48.178;11.578;2022-09-27T05:23:36;3.58;;;1.40;;
58091;SDS011;43896;48.178;11.578;2022-09-27T05:26:03;3.75;;;1.27;;
58091;SDS011;43896;48.178;11.578;2022-09-27T05:30:59;2.45;;;1.10;;
58091;SDS011;43896;48.178;11.578;2022-09-27T05:33:24;3.10;;;1.23;;
58091;SDS011;43896;48.178;11.578;2022-09-27T05:35:51;3.60;;;1.33;;
58091;SDS011;43896;48.178;11.578;2022-09-27T05:38:20;2.58;;;1.02;;
58091;SDS011;43896;48.178;11.578;2022-09-27T05:40:45;2.15;;;0.90;;
58091;SDS011;43896;48.178;11.578;2022-09-27T05:43:14;1.85;;;0.80;;
58091;SDS011;43896;48.178;11.578;2022-09-27T05:45:40;2.75;;;0.90;;
58091;SDS011;43896;48.178;11.578;2022-09-27T05:48:05;2.10;;;1.00;;
58091;SDS011;43896;48.178;11.578;2022-09-27T05:50:31;1.83;;;0.70;;
58091;SDS011;43896;48.178;11.578;2022-09-27T05:52:56;1.98;;;0.80;;
58091;SDS011;43896;48.178;11.578;2022-09-27T05:55:22;1.25;;;0.60;;
58091;SDS011;43896;48.178;11.578;2022-09-27T05:57:57;1.35;;;0.50;;
58091;SDS011;43896;48.178;11.578;2022-09-27T06:00:25;2.00;;;0.60;;
58091;SDS011;43896;48.178;11.578;2022-09-27T06:02:55;1.50;;;0.70;;
58091;SDS011;43896;48.178;11.578;2022-09-27T06:05:23;1.83;;;0.60;;
58091;SDS011;43896;48.178;11.578;2022-09-27T06:07:50;1.40;;;0.60;;
58091;SDS011;43896;48.178;11.578;2022-09-27T06:10:17;1.38;;;0.60;;
58091;SDS011;43896;48.178;11.578;2022-09-27T06:12:43;2.00;;;0.50;;
58091;SDS011;43896;48.178;11.578;2022-09-27T06:15:10;1.38;;;0.50;;
58091;SDS011;43896;48.178;11.578;2022-09-27T06:17:36;1.67;;;0.47;;
58091;SDS011;43896;48.178;11.578;2022-09-27T06:20:01;2.10;;;0.70;;
58091;SDS011;43896;48.178;11.578;2022-09-27T06:22:27;1.38;;;0.50;;
58091;SDS011;43896;48.178;11.578;2022-09-27T06:24:53;1.35;;;0.60;;
58091;SDS011;43896;48.178;11.578;2022-09-27T06:27:18;1.33;;;0.60;;
58091;SDS011;43896;48.178;11.578;2022-09-27T06:29:43;1.67;;;0.50;;
58091;SDS011;43896;48.178;11.578;2022-09-27T06:32:09;1.73;;;0.55;;
58091;SDS011;43896;48.178;11.578;2022-09-27T06:34:35;1.35;;;0.50;;
58091;SDS011;43896;48.178;11.578;2022-09-27T06:37:01;1.52;;;0.60;;
58091;SDS011;43896;48.178;11.578;2022-09-27T06:39:26;1.77;;;0.50;;
58091;SDS011;43896;48.178;11.578;2022-09-27T06:41:53;1.77;;;0.60;;
58091;SDS011;43896;48.178;11.578;2022-09-27T06:44:21;2.03;;;0.70;;
58091;SDS011;43896;48.178;11.578;2022-09-27T06:46:48;2.05;;;0.75;;
58091;SDS011;43896;48.178;11.578;2022-09-27T06:49:14;2.92;;;0.60;;
58091;SDS011;43896;48.178;11.578;2022-09-27T06:51:39;1.95;;;0.70;;
58091;SDS011;43896;48.178;11.578;2022-09-27T06:54:05;1.92;;;0.60;;
58091;SDS011;43896;48.178;11.578;2022-09-27T06:56:30;3.83;;;0.60;;
58091;SDS011;43896;48.178;11.578;2022-09-27T06:58:55;4.20;;;0.80;;
58091;SDS011;43896;48.178;11.578;2022-09-27T07:01:39;2.80;;;0.63;;
58091;SDS011;43896;48.178;11.578;2022-09-27T07:04:05;2.25;;;0.60;;
58091;SDS011;43896;48.178;11.578;2022-09-27T07:06:31;2.22;;;0.70;;
58091;SDS011;43896;48.178;11.578;2022-09-27T07:08:56;2.33;;;0.63;;
58091;SDS011;43896;48.178;11.578;2022-09-27T07:11:22;2.08;;;0.60;;
58091;SDS011;43896;48.178;11.578;2022-09-27T07:13:47;2.20;;;0.70;;
58091;SDS011;43896;48.178;11.578;2022-09-27T07:16:13;1.65;;;0.70;;
58091;SDS011;43896;48.178;11.578;2022-09-27T07:18:39;2.72;;;0.70;;
58091;SDS011;43896;48.178;11.578;2022-09-27T07:21:06;1.77;;;0.60;;
58091;SDS011;43896;48.178;11.578;2022-09-27T07:23:33;1.73;;;0.70;;
58091;SDS011;43896;48.178;11.578;2022-09-27T07:25:59;2.50;;;0.65;;
58091;SDS011;43896;48.178;11.578;2022-09-27T07:28:28;3.72;;;0.75;;
58091;SDS011;43896;48.178;11.578;2022-09-27T07:30:54;3.88;;;0.68;;
58091;SDS011;43896;48.178;11.578;2022-09-27T07:33:20;2.20;;;0.70;;
58091;SDS011;43896;48.178;11.578;2022-09-27T07:35:46;2.53;;;0.77;;
58091;SDS011;43896;48.178;11.578;2022-09-27T07:38:11;1.65;;;0.70;;
58091;SDS011;43896;48.178;11.578;2022-09-27T07:40:38;2.67;;;0.80;;
58091;SDS011;43896;48.178;11.578;2022-09-27T07:43:04;3.95;;;0.90;;
58091;SDS011;43896;48.178;11.578;2022-09-27T07:45:30;3.15;;;0.60;;
58091;SDS011;43896;48.178;11.578;2022-09-27T07:47:56;2.75;;;0.60;;
58091;SDS011;43896;48.178;11.578;2022-09-27T07:50:21;4.75;;;1.17;;
58091;SDS011;43896;48.178;11.578;2022-09-27T07:52:47;1.70;;;0.50;;
58091;SDS011;43896;48.178;11.578;2022-09-27T07:55:16;2.50;;;0.60;;
58091;SDS011;43896;48.178;11.578;2022-09-27T07:57:43;2.03;;;0.50;;
58091;SDS011;43896;48.178;11.578;2022-09-27T08:00:12;1.40;;;0.45;;
58091;SDS011;43896;48.178;11.578;2022-09-27T08:02:40;2.42;;;0.50;;
58091;SDS011;43896;48.178;11.578;2022-09-27T08:05:06;3.85;;;0.55;;
58091;SDS011;43896;48.178;11.578;2022-09-27T08:07:32;1.15;;;0.40;;
58091;SDS011;43896;48.178;11.578;2022-09-27T08:09:58;1.40;;;0.40;;
58091;SDS011;43896;48.178;11.578;2022-09-27T08:12:23;2.95;;;0.50;;
58091;SDS011;43896;48.178;11.578;2022-09-27T08:14:49;2.20;;;0.38;;
58091;SDS011;43896;48.178;11.578;2022-09-27T08:17:15;0.73;;;0.30;;
58091;SDS011;43896;48.178;11.578;2022-09-27T08:19:43;1.23;;;0.25;;
58091;SDS011;43896;48.178;11.578;2022-09-27T08:22:09;1.40;;;0.32;;
58091;SDS011;43896;48.178;11.578;2022-09-27T08:24:40;1.08;;;0.30;;
58091;SDS011;43896;48.178;11.578;2022-09-27T08:27:06;1.20;;;0.40;;
58091;SDS011;43896;48.178;11.578;2022-09-27T08:29:35;1.42;;;0.40;;
58091;SDS011;43896;48.178;11.578;2022-09-27T08:32:00;1.08;;;0.28;;
58091;SDS011;43896;48.178;11.578;2022-09-27T08:34:26;0.88;;;0.30;;
58091;SDS011;43896;48.178;11.578;2022-09-27T08:36:53;1.30;;;0.35;;
58091;SDS011;43896;48.178;11.578;2022-09-27T08:39:19;1.00;;;0.32;;
58091;SDS011;43896;48.178;11.578;2022-09-27T08:41:53;1.83;;;0.20;;
58091;SDS011;43896;48.178;11.578;2022-09-27T08:44:28;1.02;;;0.30;;
58091;SDS011;43896;48.178;11.578;2022-09-27T08:52:03;0.70;;;0.40;;
58091;SDS011;43896;48.178;11.578;2022-09-27T08:54:32;1.27;;;0.38;;
58091;SDS011;43896;48.178;11.578;2022-09-27T08:57:01;1.08;;;0.40;;
58091;SDS011;43896;48.178;11.578;2022-09-27T08:59:37;1.55;;;0.40;;
58091;SDS011;43896;48.178;11.578;2022-09-27T09:02:39;1.45;;;0.40;;
58091;SDS011;43896;48.178;11.578;2022-09-27T09:05:09;0.93;;;0.30;;
58091;SDS011;43896;48.178;11.578;2022-09-27T09:16:22;1.63;;;0.38;;
58091;SDS011;43896;48.178;11.578;2022-09-27T09:19:03;0.75;;;0.30;;
58091;SDS011;43896;48.178;11.578;2022-09-27T09:25:03;0.88;;;0.50;;
58091;SDS011;43896;48.178;11.578;2022-09-27T09:27:46;1.60;;;0.45;;
58091;SDS011;43896;48.178;11.578;2022-09-27T09:30:20;1.63;;;0.40;;
58091;SDS011;43896;48.178;11.578;2022-09-27T09:38:11;1.70;;;0.40;;
58091;SDS011;43896;48.178;11.578;2022-09-27T09:40:47;0.98;;;0.40;;
58091;SDS011;43896;48.178;11.578;2022-09-27T09:46:35;0.77;;;0.25;;
58091;SDS011;43896;48.178;11.578;2022-09-27T09:51:47;0.82;;;0.40;;
58091;SDS011;43896;48.178;11.578;2022-09-27T09:54:21;1.67;;;0.30;;
58091;SDS011;43896;48.178;11.578;2022-09-27T09:57:05;1.67;;;0.40;;
58091;SDS011;43896;48.178;11.578;2022-09-27T09:59:35;0.50;;;0.22;;
58091;SDS011;43896;48.178;11.578;2022-09-27T10:04:50;0.95;;;0.30;;
58091;SDS011;43896;48.178;11.578;2022-09-27T10:07:17;0.98;;;0.30;;
58091;SDS011;43896;48.178;11.578;2022-09-27T10:09:47;0.68;;;0.30;;
58091;SDS011;43896;48.178;11.578;2022-09-27T10:12:13;1.40;;;0.40;;
58091;SDS011;43896;48.178;11.578;2022-09-27T10:14:39;1.00;;;0.35;;
58091;SDS011;43896;48.178;11.578;2022-09-27T10:17:09;0.80;;;0.30;;
58091;SDS011;43896;48.178;11.578;2022-09-27T10:19:38;1.70;;;0.43;;
58091;SDS011;43896;48.178;11.578;2022-09-27T10:22:19;2.65;;;0.40;;
58091;SDS011;43896;48.178;11.578;2022-09-27T10:24:53;1.35;;;0.30;;
58091;SDS011;43896;48.178;11.578;2022-09-27T10:27:40;0.73;;;0.30;;
58091;SDS011;43896;48.178;11.578;2022-09-27T10:30:26;0.40;;;0.30;;
58091;SDS011;43896;48.178;11.578;2022-09-27T10:33:03;1.50;;;0.40;;
58091;SDS011;43896;48.178;11.578;2022-09-27T10:35:33;0.88;;;0.38;;
58091;SDS011;43896;48.178;11.578;2022-09-27T10:40:47;1.35;;;0.32;;
58091;SDS011;43896;48.178;11.578;2022-09-27T10:43:23;0.93;;;0.30;;
58091;SDS011;43896;48.178;11.578;2022-09-27T10:45:48;0.85;;;0.30;;
58091;SDS011;43896;48.178;11.578;2022-09-27T10:48:20;1.10;;;0.35;;
58091;SDS011;43896;48.178;11.578;2022-09-27T10:50:58;1.08;;;0.30;;
58091;SDS011;43896;48.178;11.578;2022-09-27T10:55:54;1.58;;;0.40;;
58091;SDS011;43896;48.178;11.578;2022-09-27T10:58:24;0.73;;;0.35;;
58091;SDS011;43896;48.178;11.578;2022-09-27T11:01:04;1.52;;;0.40;;
58091;SDS011;43896;48.178;11.578;2022-09-27T11:03:35;1.45;;;0.50;;
58091;SDS011;43896;48.178;11.578;2022-09-27T11:08:51;1.42;;;0.40;;
58091;SDS011;43896;48.178;11.578;2022-09-27T11:11:20;0.95;;;0.50;;
58091;SDS011;43896;48.178;11.578;2022-09-27T11:25:02;1.17;;;0.40;;
58091;SDS011;43896;48.178;11.578;2022-09-27T11:39:16;1.92;;;0.50;;
58091;SDS011;43896;48.178;11.578;2022-09-27T11:41:59;1.38;;;0.43;;
58091;SDS011;43896;48.178;11.578;2022-09-27T11:47:44;2.47;;;0.50;;
58091;SDS011;43896;48.178;11.578;2022-09-27T11:51:13;0.50;;;0.20;;
58091;SDS011;43896;48.178;11.578;2022-09-27T11:57:14;0.60;;;0.38;;
58091;SDS011;43896;48.178;11.578;2022-09-27T11:59:29;0.87;;;0.30;;
58091;SDS011;43896;48.178;11.578;2022-09-27T12:02:12;1.30;;;0.40;;
58091;SDS011;43896;48.178;11.578;2022-09-27T12:05:07;0.88;;;0.30;;
58091;SDS011;43896;48.178;11.578;2022-09-27T12:07:47;3.25;;;0.50;;
58091;SDS011;43896;48.178;11.578;2022-09-27T12:10:42;1.48;;;0.40;;
58091;SDS011;43896;48.178;11.578;2022-09-27T12:13:13;2.20;;;0.57;;
58091;SDS011;43896;48.178;11.578;2022-09-27T12:15:43;2.28;;;0.63;;
58091;SDS011;43896;48.178;11.578;2022-09-27T12:20:50;1.35;;;0.40;;
58091;SDS011;43896;48.178;11.578;2022-09-27T12:23:21;1.65;;;0.60;;
58091;SDS011;43896;48.178;11.578;2022-09-27T12:25:53;1.90;;;0.60;;
58091;SDS011;43896;48.178;11.578;2022-09-27T12:28:29;1.27;;;0.50;;
58091;SDS011;43896;48.178;11.578;2022-09-27T12:33:58;2.47;;;0.87;;
58091;SDS011;43896;48.178;11.578;2022-09-27T12:36:33;3.72;;;0.75;;
58091;SDS011;43896;48.178;11.578;2022-09-27T12:39:07;2.33;;;0.70;;
58091;SDS011;43896;48.178;11.578;2022-09-27T12:41:37;2.53;;;0.90;;
58091;SDS011;43896;48.178;11.578;2022-09-27T12:44:05;2.20;;;0.88;;
58091;SDS011;43896;48.178;11.578;2022-09-27T12:46:41;2.53;;;0.80;;
58091;SDS011;43896;48.178;11.578;2022-09-27T12:49:35;2.35;;;0.70;;
58091;SDS011;43896;48.178;11.578;2022-09-27T12:52:23;3.83;;;0.82;;
58091;SDS011;43896;48.178;11.578;2022-09-27T12:57:40;4.05;;;0.80;;
58091;SDS011;43896;48.178;11.578;2022-09-27T13:00:16;2.13;;;0.82;;
58091;SDS011;43896;48.178;11.578;2022-09-27T13:11:23;2.13;;;0.80;;
58091;SDS011;43896;48.178;11.578;2022-09-27T13:14:14;2.03;;;0.82;;
58091;SDS011;43896;48.178;11.578;2022-09-27T13:16:43;1.65;;;0.75;;
58091;SDS011;43896;48.178;11.578;2022-09-27T13:22:01;3.47;;;0.90;;
58091;SDS011;43896;48.178;11.578;2022-09-27T13:29:49;2.38;;;0.73;;
58091;SDS011;43896;48.178;11.578;2022-09-27T13:32:19;2.28;;;0.50;;
58091;SDS011;43896;48.178;11.578;2022-09-27T13:34:50;1.65;;;0.40;;
58091;SDS011;43896;48.178;11.578;2022-09-27T13:40:34;0.50;;;0.20;;
58091;SDS011;43896;48.178;11.578;2022-09-27T13:45:53;2.22;;;0.43;;
58091;SDS011;43896;48.178;11.578;2022-09-27T13:48:31;1.55;;;0.35;;
58091;SDS011;43896;48.178;11.578;2022-09-27T13:51:19;1.13;;;0.40;;
58091;SDS011;43896;48.178;11.578;2022-09-27T13:53:59;1.80;;;0.30;;
58091;SDS011;43896;48.178;11.578;2022-09-27T13:59:06;1.58;;;0.40;;
58091;SDS011;43896;48.178;11.578;2022-09-27T14:01:38;1.70;;;0.40;;
58091;SDS011;43896;48.178;11.578;2022-09-27T14:07:23;1.23;;;0.30;;
58091;SDS011;43896;48.178;11.578;2022-09-27T14:09:55;1.38;;;0.50;;
58091;SDS011;43896;48.178;11.578;2022-09-27T14:12:30;0.68;;;0.40;;
58091;SDS011;43896;48.178;11.578;2022-09-27T14:14:58;3.00;;;0.40;;
58091;SDS011;43896;48.178;11.578;2022-09-27T14:17:26;0.95;;;0.30;;
58091;SDS011;43896;48.178;11.578;2022-09-27T14:19:52;2.03;;;0.47;;
58091;SDS011;43896;48.178;11.578;2022-09-27T14:22:19;2.92;;;0.60;;
58091;SDS011;43896;48.178;11.578;2022-09-27T14:24:50;0.90;;;0.40;;
58091;SDS011;43896;48.178;11.578;2022-09-27T14:29:58;1.10;;;0.30;;
58091;SDS011;43896;48.178;11.578;2022-09-27T14:32:29;1.02;;;0.38;;
58091;SDS011;43896;48.178;11.578;2022-09-27T14:35:11;1.25;;;0.40;;
58091;SDS011;43896;48.178;11.578;2022-09-27T14:37:57;3.10;;;0.30;;
58091;SDS011;43896;48.178;11.578;2022-09-27T14:40:27;0.60;;;0.30;;
58091;SDS011;43896;48.178;11.578;2022-09-27T14:42:57;0.60;;;0.30;;
58091;SDS011;43896;48.178;11.578;2022-09-27T14:45:34;1.42;;;0.40;;
58091;SDS011;43896;48.178;11.578;2022-09-27T14:48:02;1.35;;;0.20;;
58091;SDS011;43896;48.178;11.578;2022-09-27T14:50:48;1.30;;;0.30;;
58091;SDS011;43896;48.178;11.578;2022-09-27T14:53:22;0.88;;;0.25;;
58091;SDS011;43896;48.178;11.578;2022-09-27T14:55:48;0.90;;;0.40;;
58091;SDS011;43896;48.178;11.578;2022-09-27T14:58:18;1.50;;;0.30;;
58091;SDS011;43896;48.178;11.578;2022-09-27T15:00:45;1.60;;;0.40;;
58091;SDS011;43896;48.178;11.578;2022-09-27T15:03:12;0.82;;;0.30;;
58091;SDS011;43896;48.178;11.578;2022-09-27T15:05:54;1.38;;;0.40;;
58091;SDS011;43896;48.178;11.578;2022-09-27T15:08:20;0.60;;;0.30;;
58091;SDS011;43896;48.178;11.578;2022-09-27T15:10:49;2.15;;;0.45;;
58091;SDS011;43896;48.178;11.578;2022-09-27T15:13:16;1.88;;;0.35;;
58091;SDS011;43896;48.178;11.578;2022-09-27T15:15:43;1.65;;;0.40;;
58091;SDS011;43896;48.178;11.578;2022-09-27T15:20:54;0.95;;;0.40;;
58091;SDS011;43896;48.178;11.578;2022-09-27T15:23:29;1.33;;;0.50;;
58091;SDS011;43896;48.178;11.578;2022-09-27T15:26:07;1.60;;;0.43;;
58091;SDS011;43896;48.178;11.578;2022-09-27T15:28:45;1.95;;;0.50;;
58091;SDS011;43896;48.178;11.578;2022-09-27T15:31:14;1.35;;;0.40;;
58091;SDS011;43896;48.178;11.578;2022-09-27T15:33:40;2.03;;;0.43;;
58091;SDS011;43896;48.178;11.578;2022-09-27T15:36:07;2.25;;;0.50;;
58091;SDS011;43896;48.178;11.578;2022-09-27T15:38:43;2.30;;;0.60;;
58091;SDS011;43896;48.178;11.578;2022-09-27T15:41:13;1.52;;;0.55;;
58091;SDS011;43896;48.178;11.578;2022-09-27T15:43:45;1.75;;;0.50;;
58091;SDS011;43896;48.178;11.578;2022-09-27T15:48:47;1.58;;;0.50;;
58091;SDS011;43896;48.178;11.578;2022-09-27T15:51:41;1.73;;;0.70;;
58091;SDS011;43896;48.178;11.578;2022-09-27T15:54:08;2.58;;;0.70;;
58091;SDS011;43896;48.178;11.578;2022-09-27T15:56:33;1.60;;;0.50;;
58091;SDS011;43896;48.178;11.578;2022-09-27T15:58:59;2.25;;;0.60;;
58091;SDS011;43896;48.178;11.578;2022-09-27T16:01:25;3.33;;;0.60;;
58091;SDS011;43896;48.178;11.578;2022-09-27T16:03:50;2.38;;;0.70;;
58091;SDS011;43896;48.178;11.578;2022-09-27T16:06:16;2.95;;;0.88;;
58091;SDS011;43896;48.178;11.578;2022-09-27T16:08:44;2.42;;;0.80;;
58091;SDS011;43896;48.178;11.578;2022-09-27T16:11:11;2.42;;;0.80;;
58091;SDS011;43896;48.178;11.578;2022-09-27T16:13:39;2.55;;;0.80;;
58091;SDS011;43896;48.178;11.578;2022-09-27T16:16:04;2.70;;;1.00;;
58091;SDS011;43896;48.178;11.578;2022-09-27T16:18:30;3.75;;;0.95;;
58091;SDS011;43896;48.178;11.578;2022-09-27T16:20:59;1.95;;;0.82;;
58091;SDS011;43896;48.178;11.578;2022-09-27T16:23:25;2.50;;;0.85;;
58091;SDS011;43896;48.178;11.578;2022-09-27T16:25:53;3.28;;;0.80;;
58091;SDS011;43896;48.178;11.578;2022-09-27T16:28:18;2.25;;;0.70;;
58091;SDS011;43896;48.178;11.578;2022-09-27T16:30:44;3.40;;;0.70;;
58091;SDS011;43896;48.178;11.578;2022-09-27T16:33:09;3.20;;;0.80;;
58091;SDS011;43896;48.178;11.578;2022-09-27T16:35:37;2.38;;;0.80;;
58091;SDS011;43896;48.178;11.578;2022-09-27T16:38:03;2.75;;;0.90;;
58091;SDS011;43896;48.178;11.578;2022-09-27T16:40:28;5.38;;;0.93;;
58091;SDS011;43896;48.178;11.578;2022-09-27T16:42:54;2.75;;;0.70;;
58091;SDS011;43896;48.178;11.578;2022-09-27T16:45:20;3.42;;;0.88;;
58091;SDS011;43896;48.178;11.578;2022-09-27T16:47:46;1.73;;;0.80;;
58091;SDS011;43896;48.178;11.578;2022-09-27T16:50:12;3.08;;;1.00;;
58091;SDS011;43896;48.178;11.578;2022-09-27T16:52:57;3.08;;;1.00;;
58091;SDS011;43896;48.178;11.578;2022-09-27T16:55:24;3.85;;;1.08;;
58091;SDS011;43896;48.178;11.578;2022-09-27T16:57:52;3.17;;;0.85;;
58091;SDS011;43896;48.178;11.578;2022-09-27T17:00:18;2.58;;;0.90;;
58091;SDS011;43896;48.178;11.578;2022-09-27T17:02:46;3.67;;;1.00;;
58091;SDS011;43896;48.178;11.578;2022-09-27T17:05:12;2.42;;;1.00;;
58091;SDS011;43896;48.178;11.578;2022-09-27T17:07:38;2.88;;;0.98;;
58091;SDS011;43896;48.178;11.578;2022-09-27T17:10:04;2.42;;;0.80;;
58091;SDS011;43896;48.178;11.578;2022-09-27T17:12:32;3.08;;;1.10;;
58091;SDS011;43896;48.178;11.578;2022-09-27T17:14:58;5.25;;;1.48;;
58091;SDS011;43896;48.178;11.578;2022-09-27T17:17:24;5.55;;;1.70;;
58091;SDS011;43896;48.178;11.578;2022-09-27T17:19:49;3.75;;;1.58;;
58091;SDS011;43896;48.178;11.578;2022-09-27T17:22:15;4.72;;;1.70;;
58091;SDS011;43896;48.178;11.578;2022-09-27T17:24:41;3.78;;;1.58;;
58091;SDS011;43896;48.178;11.578;2022-09-27T17:27:06;3.83;;;1.50;;
58091;SDS011;43896;48.178;11.578;2022-09-27T17:29:31;2.28;;;1.00;;
58091;SDS011;43896;48.178;11.578;2022-09-27T17:31:57;2.00;;;1.02;;
58091;SDS011;43896;48.178;11.578;2022-09-27T17:34:22;3.08;;;1.10;;
58091;SDS011;43896;48.178;11.578;2022-09-27T17:36:47;2.28;;;0.80;;
58091;SDS011;43896;48.178;11.578;2022-09-27T17:39:14;1.90;;;0.70;;
58091;SDS011;43896;48.178;11.578;2022-09-27T17:41:40;3.25;;;0.90;;
58091;SDS011;43896;48.178;11.578;2022-09-27T17:44:06;3.47;;;0.90;;